Terminal Aerodrome Forecast
Issued by NWS Dodge City, KS

Home | Current Version | Previous Version | Graphics & Text | Print | Product List | Glossary Off
Versions: 1 2 3 4 5 6 7 8 9 10 11 12 13 14 15 16 17 18 19 20 21 22 23 24 25 26 27 28

834
FTUS43 KDDC 230650 AAA
TAFDDC
TAF AMD
KDDC 230650Z 2307/2406 34010KT P6SM VCSH BKN100
     FM231200 33012G22KT P6SM SCT100
     FM231500 34015G25KT P6SM SCT070
     FM231800 34019G29KT P6SM OVC070
     FM240000 35010G20KT P6SM BKN070
     FM240300 35007KT P6SM SCT070=

USA.gov is the U.S. government's official web portal to all federal, state and local government web resources and services.